sensor_id;sensor_type;location;lat;lon;timestamp;temperature;humidity
44477;DHT22;30180;44.788;10.366;2023-06-14T00:02:02;23.00;74.10
44477;DHT22;30180;44.788;10.366;2023-06-14T00:04:30;23.00;74.10
44477;DHT22;30180;44.788;10.366;2023-06-14T00:06:59;23.00;74.20
44477;DHT22;30180;44.788;10.366;2023-06-14T00:09:27;23.00;74.10
44477;DHT22;30180;44.788;10.366;2023-06-14T00:11:55;23.00;74.20
44477;DHT22;30180;44.788;10.366;2023-06-14T00:14:24;23.00;74.20
44477;DHT22;30180;44.788;10.366;2023-06-14T00:16:53;23.00;74.20
44477;DHT22;30180;44.788;10.366;2023-06-14T00:19:26;23.00;74.10
44477;DHT22;30180;44.788;10.366;2023-06-14T00:21:54;23.00;74.20
44477;DHT22;30180;44.788;10.366;2023-06-14T00:24:23;23.00;74.20
44477;DHT22;30180;44.788;10.366;2023-06-14T00:26:52;23.00;74.20
44477;DHT22;30180;44.788;10.366;2023-06-14T00:29:22;23.00;74.20
44477;DHT22;30180;44.788;10.366;2023-06-14T00:31:50;23.00;74.20
44477;DHT22;30180;44.788;10.366;2023-06-14T00:34:20;23.00;74.20
44477;DHT22;30180;44.788;10.366;2023-06-14T00:36:48;23.00;74.20
44477;DHT22;30180;44.788;10.366;2023-06-14T00:39:17;23.00;74.20
44477;DHT22;30180;44.788;10.366;2023-06-14T00:41:45;23.00;74.20
44477;DHT22;30180;44.788;10.366;2023-06-14T00:44:16;23.00;74.20
44477;DHT22;30180;44.788;10.366;2023-06-14T00:46:45;23.00;74.20
44477;DHT22;30180;44.788;10.366;2023-06-14T00:49:14;23.00;74.20
44477;DHT22;30180;44.788;10.366;2023-06-14T00:51:45;23.00;74.20
44477;DHT22;30180;44.788;10.366;2023-06-14T00:54:13;23.00;74.20
44477;DHT22;30180;44.788;10.366;2023-06-14T00:56:43;23.00;74.30
44477;DHT22;30180;44.788;10.366;2023-06-14T00:59:12;23.00;74.30
44477;DHT22;30180;44.788;10.366;2023-06-14T01:01:42;23.00;74.20
44477;DHT22;30180;44.788;10.366;2023-06-14T01:04:10;23.00;74.30
44477;DHT22;30180;44.788;10.366;2023-06-14T01:06:47;23.00;74.30
44477;DHT22;30180;44.788;10.366;2023-06-14T01:09:22;23.00;74.30
44477;DHT22;30180;44.788;10.366;2023-06-14T01:11:59;23.00;74.30
44477;DHT22;30180;44.788;10.366;2023-06-14T01:14:31;23.00;74.30
44477;DHT22;30180;44.788;10.366;2023-06-14T01:17:02;23.00;74.30
44477;DHT22;30180;44.788;10.366;2023-06-14T01:19:32;23.00;74.30
44477;DHT22;30180;44.788;10.366;2023-06-14T01:22:03;23.00;74.30
44477;DHT22;30180;44.788;10.366;2023-06-14T01:24:33;22.90;74.20
44477;DHT22;30180;44.788;10.366;2023-06-14T01:27:02;23.00;74.30
44477;DHT22;30180;44.788;10.366;2023-06-14T01:29:31;22.90;74.30
44477;DHT22;30180;44.788;10.366;2023-06-14T01:32:00;22.90;74.30
44477;DHT22;30180;44.788;10.366;2023-06-14T01:34:29;23.00;74.30
44477;DHT22;30180;44.788;10.366;2023-06-14T01:37:00;23.00;74.30
44477;DHT22;30180;44.788;10.366;2023-06-14T01:39:30;22.90;74.30
44477;DHT22;30180;44.788;10.366;2023-06-14T01:42:00;23.00;74.30
44477;DHT22;30180;44.788;10.366;2023-06-14T01:44:29;23.00;74.30
44477;DHT22;30180;44.788;10.366;2023-06-14T01:46:58;23.00;74.30
44477;DHT22;30180;44.788;10.366;2023-06-14T01:49:27;22.90;74.30
44477;DHT22;30180;44.788;10.366;2023-06-14T01:51:55;23.00;74.30
44477;DHT22;30180;44.788;10.366;2023-06-14T01:54:24;22.90;74.30
44477;DHT22;30180;44.788;10.366;2023-06-14T01:56:52;23.00;74.40
44477;DHT22;30180;44.788;10.366;2023-06-14T01:59:22;22.90;74.30
44477;DHT22;30180;44.788;10.366;2023-06-14T02:01:50;22.90;74.30
44477;DHT22;30180;44.788;10.366;2023-06-14T02:04:18;23.00;74.40
44477;DHT22;30180;44.788;10.366;2023-06-14T02:06:47;23.00;74.40
44477;DHT22;30180;44.788;10.366;2023-06-14T02:09:15;22.90;74.30
44477;DHT22;30180;44.788;10.366;2023-06-14T02:11:44;22.90;74.40
44477;DHT22;30180;44.788;10.366;2023-06-14T02:14:12;22.90;74.40
44477;DHT22;30180;44.788;10.366;2023-06-14T02:16:43;22.90;74.30
44477;DHT22;30180;44.788;10.366;2023-06-14T02:19:15;22.90;74.30
44477;DHT22;30180;44.788;10.366;2023-06-14T02:21:44;22.90;74.30
44477;DHT22;30180;44.788;10.366;2023-06-14T02:24:12;22.90;74.40
44477;DHT22;30180;44.788;10.366;2023-06-14T02:26:41;22.90;74.30
44477;DHT22;30180;44.788;10.366;2023-06-14T02:29:10;22.90;74.40
44477;DHT22;30180;44.788;10.366;2023-06-14T02:31:42;22.90;74.30
44477;DHT22;30180;44.788;10.366;2023-06-14T02:34:11;22.90;74.40
44477;DHT22;30180;44.788;10.366;2023-06-14T02:36:39;22.90;74.40
44477;DHT22;30180;44.788;10.366;2023-06-14T02:39:09;22.90;74.40
44477;DHT22;30180;44.788;10.366;2023-06-14T02:41:37;22.90;74.40
44477;DHT22;30180;44.788;10.366;2023-06-14T02:44:06;22.90;75.00
44477;DHT22;30180;44.788;10.366;2023-06-14T02:46:34;22.90;74.40
44477;DHT22;30180;44.788;10.366;2023-06-14T02:49:04;22.90;74.40
44477;DHT22;30180;44.788;10.366;2023-06-14T02:51:32;22.90;74.40
44477;DHT22;30180;44.788;10.366;2023-06-14T02:54:01;22.90;74.40
44477;DHT22;30180;44.788;10.366;2023-06-14T02:56:30;22.90;74.40
44477;DHT22;30180;44.788;10.366;2023-06-14T02:58:58;22.90;74.40
44477;DHT22;30180;44.788;10.366;2023-06-14T03:01:27;22.90;74.40
44477;DHT22;30180;44.788;10.366;2023-06-14T03:04:01;22.90;74.40
44477;DHT22;30180;44.788;10.366;2023-06-14T03:06:31;22.90;74.40
44477;DHT22;30180;44.788;10.366;2023-06-14T03:09:00;22.90;74.40
44477;DHT22;30180;44.788;10.366;2023-06-14T03:11:32;22.90;74.40
44477;DHT22;30180;44.788;10.366;2023-06-14T03:14:00;22.80;74.30
44477;DHT22;30180;44.788;10.366;2023-06-14T03:16:30;22.80;74.30
44477;DHT22;30180;44.788;10.366;2023-06-14T03:18:58;22.90;74.40
44477;DHT22;30180;44.788;10.366;2023-06-14T03:21:27;22.80;74.30
44477;DHT22;30180;44.788;10.366;2023-06-14T03:23:56;22.90;74.40
44477;DHT22;30180;44.788;10.366;2023-06-14T03:26:25;22.90;74.40
44477;DHT22;30180;44.788;10.366;2023-06-14T03:28:53;22.90;74.40
44477;DHT22;30180;44.788;10.366;2023-06-14T03:31:21;22.90;74.40
44477;DHT22;30180;44.788;10.366;2023-06-14T03:33:50;22.90;74.40
44477;DHT22;30180;44.788;10.366;2023-06-14T03:36:18;22.90;74.40
44477;DHT22;30180;44.788;10.366;2023-06-14T03:38:47;22.90;74.40
44477;DHT22;30180;44.788;10.366;2023-06-14T03:41:16;22.80;74.40
44477;DHT22;30180;44.788;10.366;2023-06-14T03:43:44;22.80;74.40
44477;DHT22;30180;44.788;10.366;2023-06-14T03:46:13;22.80;74.40
44477;DHT22;30180;44.788;10.366;2023-06-14T03:48:41;22.80;74.40
44477;DHT22;30180;44.788;10.366;2023-06-14T03:51:09;22.90;74.40
44477;DHT22;30180;44.788;10.366;2023-06-14T03:53:37;22.80;74.40
44477;DHT22;30180;44.788;10.366;2023-06-14T03:56:27;22.80;74.40
44477;DHT22;30180;44.788;10.366;2023-06-14T03:58:55;22.80;74.40
44477;DHT22;30180;44.788;10.366;2023-06-14T04:01:24;22.80;74.40
44477;DHT22;30180;44.788;10.366;2023-06-14T04:03:54;22.90;74.50
44477;DHT22;30180;44.788;10.366;2023-06-14T04:06:22;22.90;74.40
44477;DHT22;30180;44.788;10.366;2023-06-14T04:08:51;22.80;74.40
44477;DHT22;30180;44.788;10.366;2023-06-14T04:11:20;22.80;74.40
44477;DHT22;30180;44.788;10.366;2023-06-14T04:13:49;22.80;74.40
44477;DHT22;30180;44.788;10.366;2023-06-14T04:16:20;22.80;74.40
44477;DHT22;30180;44.788;10.366;2023-06-14T04:18:49;22.80;74.40
44477;DHT22;30180;44.788;10.366;2023-06-14T04:21:19;22.80;74.40
44477;DHT22;30180;44.788;10.366;2023-06-14T04:23:47;22.80;74.40
44477;DHT22;30180;44.788;10.366;2023-06-14T04:26:20;22.80;74.40
44477;DHT22;30180;44.788;10.366;2023-06-14T04:28:54;22.80;74.40
44477;DHT22;30180;44.788;10.366;2023-06-14T04:31:24;22.80;74.40
44477;DHT22;30180;44.788;10.366;2023-06-14T04:33:53;22.80;74.40
44477;DHT22;30180;44.788;10.366;2023-06-14T04:36:21;22.80;74.40
44477;DHT22;30180;44.788;10.366;2023-06-14T04:38:51;22.80;74.40
44477;DHT22;30180;44.788;10.366;2023-06-14T04:41:21;22.80;74.40
44477;DHT22;30180;44.788;10.366;2023-06-14T04:43:49;22.80;74.40
44477;DHT22;30180;44.788;10.366;2023-06-14T04:46:21;22.80;74.40
44477;DHT22;30180;44.788;10.366;2023-06-14T04:48:49;22.80;74.40
44477;DHT22;30180;44.788;10.366;2023-06-14T04:51:18;22.80;74.40
44477;DHT22;30180;44.788;10.366;2023-06-14T04:53:48;22.80;74.40
44477;DHT22;30180;44.788;10.366;2023-06-14T04:56:17;22.80;74.40
44477;DHT22;30180;44.788;10.366;2023-06-14T04:58:45;22.80;74.40
44477;DHT22;30180;44.788;10.366;2023-06-14T05:01:13;22.80;74.40
44477;DHT22;30180;44.788;10.366;2023-06-14T05:03:43;22.80;74.40
44477;DHT22;30180;44.788;10.366;2023-06-14T05:06:12;22.80;74.40
44477;DHT22;30180;44.788;10.366;2023-06-14T05:08:40;22.80;74.40
44477;DHT22;30180;44.788;10.366;2023-06-14T05:11:08;22.80;74.40
44477;DHT22;30180;44.788;10.366;2023-06-14T05:13:37;22.80;74.40
44477;DHT22;30180;44.788;10.366;2023-06-14T05:16:06;22.80;74.40
44477;DHT22;30180;44.788;10.366;2023-06-14T05:18:34;22.80;74.40
44477;DHT22;30180;44.788;10.366;2023-06-14T05:21:05;22.80;74.40
44477;DHT22;30180;44.788;10.366;2023-06-14T05:23:33;22.80;74.40
44477;DHT22;30180;44.788;10.366;2023-06-14T05:26:02;22.80;74.40
44477;DHT22;30180;44.788;10.366;2023-06-14T05:28:31;22.80;74.40
44477;DHT22;30180;44.788;10.366;2023-06-14T05:30:59;22.80;74.40
44477;DHT22;30180;44.788;10.366;2023-06-14T05:33:27;22.80;74.40
44477;DHT22;30180;44.788;10.366;2023-06-14T05:35:56;22.80;74.40
44477;DHT22;30180;44.788;10.366;2023-06-14T05:38:26;22.80;74.40
44477;DHT22;30180;44.788;10.366;2023-06-14T05:40:54;22.80;74.40
44477;DHT22;30180;44.788;10.366;2023-06-14T05:43:23;22.80;74.40
44477;DHT22;30180;44.788;10.366;2023-06-14T05:45:51;22.80;74.40
44477;DHT22;30180;44.788;10.366;2023-06-14T05:48:19;22.80;74.40
44477;DHT22;30180;44.788;10.366;2023-06-14T05:50:48;22.80;74.40
44477;DHT22;30180;44.788;10.366;2023-06-14T05:53:16;22.80;74.40
44477;DHT22;30180;44.788;10.366;2023-06-14T05:55:45;22.80;74.40
44477;DHT22;30180;44.788;10.366;2023-06-14T05:58:14;22.80;74.40
44477;DHT22;30180;44.788;10.366;2023-06-14T06:00:42;22.80;74.40
44477;DHT22;30180;44.788;10.366;2023-06-14T06:03:10;22.80;74.40
44477;DHT22;30180;44.788;10.366;2023-06-14T06:05:40;22.70;74.40
44477;DHT22;30180;44.788;10.366;2023-06-14T06:08:08;22.80;74.40
44477;DHT22;30180;44.788;10.366;2023-06-14T06:10:36;22.80;74.40
44477;DHT22;30180;44.788;10.366;2023-06-14T06:13:06;22.80;74.40
44477;DHT22;30180;44.788;10.366;2023-06-14T06:15:37;22.80;74.40
44477;DHT22;30180;44.788;10.366;2023-06-14T06:18:05;22.80;74.40
44477;DHT22;30180;44.788;10.366;2023-06-14T06:20:33;22.80;74.40
44477;DHT22;30180;44.788;10.366;2023-06-14T06:23:03;22.80;74.40
44477;DHT22;30180;44.788;10.366;2023-06-14T06:25:31;22.80;74.40
44477;DHT22;30180;44.788;10.366;2023-06-14T06:27:59;22.80;74.40
44477;DHT22;30180;44.788;10.366;2023-06-14T06:30:29;22.80;74.40
44477;DHT22;30180;44.788;10.366;2023-06-14T06:32:58;22.80;74.40
44477;DHT22;30180;44.788;10.366;2023-06-14T06:35:26;22.80;74.40
44477;DHT22;30180;44.788;10.366;2023-06-14T06:37:54;22.80;74.40
44477;DHT22;30180;44.788;10.366;2023-06-14T06:40:23;22.80;74.40
44477;DHT22;30180;44.788;10.366;2023-06-14T06:42:51;22.80;74.40
44477;DHT22;30180;44.788;10.366;2023-06-14T06:45:20;22.80;74.40
44477;DHT22;30180;44.788;10.366;2023-06-14T06:47:53;22.80;74.40
44477;DHT22;30180;44.788;10.366;2023-06-14T06:50:22;22.80;74.40
44477;DHT22;30180;44.788;10.366;2023-06-14T06:52:52;22.80;74.40
44477;DHT22;30180;44.788;10.366;2023-06-14T06:55:21;22.80;74.40
44477;DHT22;30180;44.788;10.366;2023-06-14T06:57:49;22.80;74.40
44477;DHT22;30180;44.788;10.366;2023-06-14T07:00:19;22.80;74.40
44477;DHT22;30180;44.788;10.366;2023-06-14T07:02:48;22.80;74.40
44477;DHT22;30180;44.788;10.366;2023-06-14T07:05:17;22.80;74.40
44477;DHT22;30180;44.788;10.366;2023-06-14T07:07:46;22.80;74.40
44477;DHT22;30180;44.788;10.366;2023-06-14T07:10:14;22.80;74.40
44477;DHT22;30180;44.788;10.366;2023-06-14T07:12:42;22.80;74.40
44477;DHT22;30180;44.788;10.366;2023-06-14T07:15:10;22.80;74.40
44477;DHT22;30180;44.788;10.366;2023-06-14T07:17:40;22.70;74.40
44477;DHT22;30180;44.788;10.366;2023-06-14T07:20:09;22.80;74.40
44477;DHT22;30180;44.788;10.366;2023-06-14T07:22:42;22.70;74.40
44477;DHT22;30180;44.788;10.366;2023-06-14T07:25:10;22.80;74.40
44477;DHT22;30180;44.788;10.366;2023-06-14T07:27:42;22.80;74.40
44477;DHT22;30180;44.788;10.366;2023-06-14T07:30:11;22.70;74.40
44477;DHT22;30180;44.788;10.366;2023-06-14T07:32:39;22.80;74.40
44477;DHT22;30180;44.788;10.366;2023-06-14T07:35:08;22.70;74.30
44477;DHT22;30180;44.788;10.366;2023-06-14T07:37:36;22.70;74.30
44477;DHT22;30180;44.788;10.366;2023-06-14T07:40:08;22.80;74.40
44477;DHT22;30180;44.788;10.366;2023-06-14T07:42:37;22.80;74.40
44477;DHT22;30180;44.788;10.366;2023-06-14T07:45:06;22.80;74.40
44477;DHT22;30180;44.788;10.366;2023-06-14T07:47:34;22.80;74.40
44477;DHT22;30180;44.788;10.366;2023-06-14T07:50:03;22.80;74.40
44477;DHT22;30180;44.788;10.366;2023-06-14T07:52:31;22.80;74.40
44477;DHT22;30180;44.788;10.366;2023-06-14T07:54:59;22.80;74.40
44477;DHT22;30180;44.788;10.366;2023-06-14T07:57:29;22.80;74.40
44477;DHT22;30180;44.788;10.366;2023-06-14T07:59:57;22.70;74.40
44477;DHT22;30180;44.788;10.366;2023-06-14T08:02:26;22.70;74.40
44477;DHT22;30180;44.788;10.366;2023-06-14T08:04:54;22.80;74.40
44477;DHT22;30180;44.788;10.366;2023-06-14T08:07:22;22.80;74.40
44477;DHT22;30180;44.788;10.366;2023-06-14T08:09:50;22.70;74.40
44477;DHT22;30180;44.788;10.366;2023-06-14T08:12:19;22.80;74.40
44477;DHT22;30180;44.788;10.366;2023-06-14T08:14:48;22.80;74.40
44477;DHT22;30180;44.788;10.366;2023-06-14T08:17:37;22.80;74.40
44477;DHT22;30180;44.788;10.366;2023-06-14T08:20:06;22.70;74.40
44477;DHT22;30180;44.788;10.366;2023-06-14T08:22:35;22.80;74.40
44477;DHT22;30180;44.788;10.366;2023-06-14T08:25:04;22.80;74.40
44477;DHT22;30180;44.788;10.366;2023-06-14T08:27:33;22.70;74.40
44477;DHT22;30180;44.788;10.366;2023-06-14T08:30:03;22.80;74.40
44477;DHT22;30180;44.788;10.366;2023-06-14T08:32:32;22.70;74.40
44477;DHT22;30180;44.788;10.366;2023-06-14T08:35:00;22.80;74.40
44477;DHT22;30180;44.788;10.366;2023-06-14T08:37:31;22.70;74.40
44477;DHT22;30180;44.788;10.366;2023-06-14T08:40:00;22.80;74.40
44477;DHT22;30180;44.788;10.366;2023-06-14T08:42:33;22.70;74.40
44477;DHT22;30180;44.788;10.366;2023-06-14T08:45:05;22.70;74.40
44477;DHT22;30180;44.788;10.366;2023-06-14T08:47:34;22.80;74.50
44477;DHT22;30180;44.788;10.366;2023-06-14T08:50:08;22.80;74.50
44477;DHT22;30180;44.788;10.366;2023-06-14T08:52:55;22.70;74.40
44477;DHT22;30180;44.788;10.366;2023-06-14T08:55:24;22.70;74.40
44477;DHT22;30180;44.788;10.366;2023-06-14T08:57:55;22.70;74.40
44477;DHT22;30180;44.788;10.366;2023-06-14T09:00:26;22.70;74.40
44477;DHT22;30180;44.788;10.366;2023-06-14T09:02:55;22.80;74.50
44477;DHT22;30180;44.788;10.366;2023-06-14T09:05:24;22.70;74.40
44477;DHT22;30180;44.788;10.366;2023-06-14T09:07:53;22.70;74.40
44477;DHT22;30180;44.788;10.366;2023-06-14T09:10:25;22.70;74.40
44477;DHT22;30180;44.788;10.366;2023-06-14T09:12:55;22.80;74.40
44477;DHT22;30180;44.788;10.366;2023-06-14T09:15:25;22.70;74.40
44477;DHT22;30180;44.788;10.366;2023-06-14T09:17:53;22.70;74.40
44477;DHT22;30180;44.788;10.366;2023-06-14T09:20:24;22.70;74.40
44477;DHT22;30180;44.788;10.366;2023-06-14T09:22:53;22.70;74.40
44477;DHT22;30180;44.788;10.366;2023-06-14T09:25:22;22.70;74.40
44477;DHT22;30180;44.788;10.366;2023-06-14T09:28:06;22.70;74.40
44477;DHT22;30180;44.788;10.366;2023-06-14T09:30:38;22.70;74.40
44477;DHT22;30180;44.788;10.366;2023-06-14T09:33:07;22.70;74.40
44477;DHT22;30180;44.788;10.366;2023-06-14T09:35:35;22.70;74.40
44477;DHT22;30180;44.788;10.366;2023-06-14T09:38:04;22.70;74.50
44477;DHT22;30180;44.788;10.366;2023-06-14T09:40:35;22.70;74.40
44477;DHT22;30180;44.788;10.366;2023-06-14T09:43:06;22.80;74.50
44477;DHT22;30180;44.788;10.366;2023-06-14T09:45:39;22.70;74.40
44477;DHT22;30180;44.788;10.366;2023-06-14T09:48:08;22.70;74.50
44477;DHT22;30180;44.788;10.366;2023-06-14T09:50:37;22.70;74.50
44477;DHT22;30180;44.788;10.366;2023-06-14T09:53:07;22.70;74.50
44477;DHT22;30180;44.788;10.366;2023-06-14T09:55:36;22.70;74.50
44477;DHT22;30180;44.788;10.366;2023-06-14T09:58:06;22.70;74.50
44477;DHT22;30180;44.788;10.366;2023-06-14T10:00:36;22.70;74.50
44477;DHT22;30180;44.788;10.366;2023-06-14T10:03:13;22.70;74.50
44477;DHT22;30180;44.788;10.366;2023-06-14T10:05:43;22.70;74.50
44477;DHT22;30180;44.788;10.366;2023-06-14T10:08:14;22.70;74.50
44477;DHT22;30180;44.788;10.366;2023-06-14T10:10:44;22.70;74.50
44477;DHT22;30180;44.788;10.366;2023-06-14T10:13:13;22.70;74.50
44477;DHT22;30180;44.788;10.366;2023-06-14T10:15:48;22.70;74.50
44477;DHT22;30180;44.788;10.366;2023-06-14T10:18:28;22.70;74.50
44477;DHT22;30180;44.788;10.366;2023-06-14T10:21:05;22.70;74.50
44477;DHT22;30180;44.788;10.366;2023-06-14T10:23:38;22.70;74.50
44477;DHT22;30180;44.788;10.366;2023-06-14T10:26:09;22.70;74.50
44477;DHT22;30180;44.788;10.366;2023-06-14T10:28:56;22.70;74.50
44477;DHT22;30180;44.788;10.366;2023-06-14T10:31:40;22.70;74.50
44477;DHT22;30180;44.788;10.366;2023-06-14T10:34:11;22.70;74.50
44477;DHT22;30180;44.788;10.366;2023-06-14T10:36:40;22.70;74.50
44477;DHT22;30180;44.788;10.366;2023-06-14T10:39:15;22.70;74.50
44477;DHT22;30180;44.788;10.366;2023-06-14T10:41:51;22.70;74.50
44477;DHT22;30180;44.788;10.366;2023-06-14T10:44:39;22.70;74.50
44477;DHT22;30180;44.788;10.366;2023-06-14T10:47:10;22.70;74.50
44477;DHT22;30180;44.788;10.366;2023-06-14T10:49:42;22.70;74.90
44477;DHT22;30180;44.788;10.366;2023-06-14T10:52:12;22.70;74.50
44477;DHT22;30180;44.788;10.366;2023-06-14T10:55:05;22.70;74.50
44477;DHT22;30180;44.788;10.366;2023-06-14T10:57:36;22.70;75.20
44477;DHT22;30180;44.788;10.366;2023-06-14T11:00:18;22.70;74.60
44477;DHT22;30180;44.788;10.366;2023-06-14T11:03:28;22.70;74.50
44477;DHT22;30180;44.788;10.366;2023-06-14T11:06:00;22.70;74.50
44477;DHT22;30180;44.788;10.366;2023-06-14T11:09:11;22.70;74.50
44477;DHT22;30180;44.788;10.366;2023-06-14T11:11:42;22.70;74.50
44477;DHT22;30180;44.788;10.366;2023-06-14T11:14:11;22.70;74.50
44477;DHT22;30180;44.788;10.366;2023-06-14T11:16:39;22.70;74.60
44477;DHT22;30180;44.788;10.366;2023-06-14T11:19:07;22.70;74.60
44477;DHT22;30180;44.788;10.366;2023-06-14T11:21:41;22.70;74.60
44477;DHT22;30180;44.788;10.366;2023-06-14T11:24:10;22.70;74.60
44477;DHT22;30180;44.788;10.366;2023-06-14T11:26:40;22.70;74.60
44477;DHT22;30180;44.788;10.366;2023-06-14T11:29:08;22.70;74.60
44477;DHT22;30180;44.788;10.366;2023-06-14T11:31:37;22.70;74.60
44477;DHT22;30180;44.788;10.366;2023-06-14T11:34:06;22.70;74.60
44477;DHT22;30180;44.788;10.366;2023-06-14T11:36:34;22.70;74.60
44477;DHT22;30180;44.788;10.366;2023-06-14T11:39:05;22.70;74.50
44477;DHT22;30180;44.788;10.366;2023-06-14T11:41:36;22.70;74.60
44477;DHT22;30180;44.788;10.366;2023-06-14T11:44:05;22.70;74.60
44477;DHT22;30180;44.788;10.366;2023-06-14T11:46:34;22.70;74.60
44477;DHT22;30180;44.788;10.366;2023-06-14T11:49:03;22.70;74.60
44477;DHT22;30180;44.788;10.366;2023-06-14T11:51:34;22.70;74.60
44477;DHT22;30180;44.788;10.366;2023-06-14T11:54:06;22.70;74.60
44477;DHT22;30180;44.788;10.366;2023-06-14T11:56:36;22.70;74.60
44477;DHT22;30180;44.788;10.366;2023-06-14T11:59:04;22.70;74.60
44477;DHT22;30180;44.788;10.366;2023-06-14T12:01:36;22.70;74.60
44477;DHT22;30180;44.788;10.366;2023-06-14T12:04:06;22.70;75.20
44477;DHT22;30180;44.788;10.366;2023-06-14T12:06:35;22.70;74.60
44477;DHT22;30180;44.788;10.366;2023-06-14T12:09:08;22.70;74.60
44477;DHT22;30180;44.788;10.366;2023-06-14T12:11:40;22.70;74.60
44477;DHT22;30180;44.788;10.366;2023-06-14T12:14:09;22.70;74.60
44477;DHT22;30180;44.788;10.366;2023-06-14T12:16:39;22.70;74.60
44477;DHT22;30180;44.788;10.366;2023-06-14T12:19:09;22.70;74.60
44477;DHT22;30180;44.788;10.366;2023-06-14T12:21:38;22.70;74.60
44477;DHT22;30180;44.788;10.366;2023-06-14T12:24:09;22.70;74.50
44477;DHT22;30180;44.788;10.366;2023-06-14T12:26:41;22.70;74.60
44477;DHT22;30180;44.788;10.366;2023-06-14T12:29:09;22.70;74.50
44477;DHT22;30180;44.788;10.366;2023-06-14T12:31:39;22.70;74.60
44477;DHT22;30180;44.788;10.366;2023-06-14T12:34:09;22.70;74.60
44477;DHT22;30180;44.788;10.366;2023-06-14T12:36:37;22.70;74.60
44477;DHT22;30180;44.788;10.366;2023-06-14T12:39:12;22.70;74.60
44477;DHT22;30180;44.788;10.366;2023-06-14T12:41:41;22.70;74.60
44477;DHT22;30180;44.788;10.366;2023-06-14T12:44:10;22.70;74.60
44477;DHT22;30180;44.788;10.366;2023-06-14T12:46:39;22.70;74.60
44477;DHT22;30180;44.788;10.366;2023-06-14T12:49:09;22.70;74.50
44477;DHT22;30180;44.788;10.366;2023-06-14T12:51:37;22.70;74.60
44477;DHT22;30180;44.788;10.366;2023-06-14T12:54:06;22.70;74.60
44477;DHT22;30180;44.788;10.366;2023-06-14T12:56:35;22.70;74.50
44477;DHT22;30180;44.788;10.366;2023-06-14T12:59:04;22.70;74.60
44477;DHT22;30180;44.788;10.366;2023-06-14T13:01:33;22.70;74.50
44477;DHT22;30180;44.788;10.366;2023-06-14T13:04:01;22.70;74.50
44477;DHT22;30180;44.788;10.366;2023-06-14T13:06:29;22.70;74.50
44477;DHT22;30180;44.788;10.366;2023-06-14T13:08:58;22.70;74.60
44477;DHT22;30180;44.788;10.366;2023-06-14T13:11:27;22.70;74.60
44477;DHT22;30180;44.788;10.366;2023-06-14T13:13:56;22.80;74.70
44477;DHT22;30180;44.788;10.366;2023-06-14T13:16:26;22.70;74.60
44477;DHT22;30180;44.788;10.366;2023-06-14T13:18:54;22.70;74.60
44477;DHT22;30180;44.788;10.366;2023-06-14T13:21:23;22.70;74.60
44477;DHT22;30180;44.788;10.366;2023-06-14T13:23:51;22.70;74.60
44477;DHT22;30180;44.788;10.366;2023-06-14T13:26:20;22.80;74.60
44477;DHT22;30180;44.788;10.366;2023-06-14T13:28:49;22.80;74.60
44477;DHT22;30180;44.788;10.366;2023-06-14T13:31:19;22.80;74.70
44477;DHT22;30180;44.788;10.366;2023-06-14T13:33:48;22.80;74.60
44477;DHT22;30180;44.788;10.366;2023-06-14T13:36:16;22.80;74.60
44477;DHT22;30180;44.788;10.366;2023-06-14T13:38:44;22.80;74.70
44477;DHT22;30180;44.788;10.366;2023-06-14T13:41:15;22.80;74.60
44477;DHT22;30180;44.788;10.366;2023-06-14T13:43:43;22.80;74.60
44477;DHT22;30180;44.788;10.366;2023-06-14T13:46:11;22.80;74.60
44477;DHT22;30180;44.788;10.366;2023-06-14T13:48:41;22.80;74.60
44477;DHT22;30180;44.788;10.366;2023-06-14T13:51:09;22.80;74.60
44477;DHT22;30180;44.788;10.366;2023-06-14T13:53:38;22.80;74.70
44477;DHT22;30180;44.788;10.366;2023-06-14T13:56:06;22.80;74.60
44477;DHT22;30180;44.788;10.366;2023-06-14T13:58:34;22.80;74.70
44477;DHT22;30180;44.788;10.366;2023-06-14T14:01:03;22.80;74.70
44477;DHT22;30180;44.788;10.366;2023-06-14T14:03:31;22.80;74.70
44477;DHT22;30180;44.788;10.366;2023-06-14T14:06:02;22.80;74.70
44477;DHT22;30180;44.788;10.366;2023-06-14T14:08:31;22.80;74.70
44477;DHT22;30180;44.788;10.366;2023-06-14T14:10:59;22.80;74.70
44477;DHT22;30180;44.788;10.366;2023-06-14T14:13:28;22.80;74.70
44477;DHT22;30180;44.788;10.366;2023-06-14T14:15:56;22.80;74.70
44477;DHT22;30180;44.788;10.366;2023-06-14T14:18:25;22.80;74.70
44477;DHT22;30180;44.788;10.366;2023-06-14T14:20:57;22.80;74.70
44477;DHT22;30180;44.788;10.366;2023-06-14T14:23:28;22.80;74.70
44477;DHT22;30180;44.788;10.366;2023-06-14T14:25:57;22.80;74.70
44477;DHT22;30180;44.788;10.366;2023-06-14T14:28:25;22.80;74.70
44477;DHT22;30180;44.788;10.366;2023-06-14T14:30:53;22.80;74.70
44477;DHT22;30180;44.788;10.366;2023-06-14T14:33:22;22.80;74.70
44477;DHT22;30180;44.788;10.366;2023-06-14T14:35:50;22.80;74.70
44477;DHT22;30180;44.788;10.366;2023-06-14T14:38:18;22.80;74.70
44477;DHT22;30180;44.788;10.366;2023-06-14T14:40:48;22.80;74.80
44477;DHT22;30180;44.788;10.366;2023-06-14T14:43:16;22.80;74.80
44477;DHT22;30180;44.788;10.366;2023-06-14T14:45:44;22.80;74.80
44477;DHT22;30180;44.788;10.366;2023-06-14T14:48:13;22.80;74.80
44477;DHT22;30180;44.788;10.366;2023-06-14T14:50:41;22.80;74.70
44477;DHT22;30180;44.788;10.366;2023-06-14T14:53:09;22.80;74.70
44477;DHT22;30180;44.788;10.366;2023-06-14T14:55:37;22.80;74.70
44477;DHT22;30180;44.788;10.366;2023-06-14T14:58:09;22.80;75.30
44477;DHT22;30180;44.788;10.366;2023-06-14T15:00:37;22.80;74.70
44477;DHT22;30180;44.788;10.366;2023-06-14T15:03:06;22.80;74.70
44477;DHT22;30180;44.788;10.366;2023-06-14T15:05:34;22.80;74.70
44477;DHT22;30180;44.788;10.366;2023-06-14T15:08:04;22.80;74.80
44477;DHT22;30180;44.788;10.366;2023-06-14T15:10:37;22.80;74.80
44477;DHT22;30180;44.788;10.366;2023-06-14T15:13:08;22.80;74.80
44477;DHT22;30180;44.788;10.366;2023-06-14T15:15:37;22.90;74.80
44477;DHT22;30180;44.788;10.366;2023-06-14T15:18:05;22.80;74.80
44477;DHT22;30180;44.788;10.366;2023-06-14T15:20:33;22.90;74.80
44477;DHT22;30180;44.788;10.366;2023-06-14T15:23:02;22.80;74.80
44477;DHT22;30180;44.788;10.366;2023-06-14T15:25:30;22.90;74.90
44477;DHT22;30180;44.788;10.366;2023-06-14T15:27:59;22.90;74.90
44477;DHT22;30180;44.788;10.366;2023-06-14T15:30:30;22.90;74.80
44477;DHT22;30180;44.788;10.366;2023-06-14T15:32:58;22.80;74.80